Time;durP1;ratioP1;P1;durP2;ratioP2;P2;SDS_P1;SDS_P2;PMS_P1;PMS_P2;Temp;Humidity;BMP_temperature;BMP_pressure;BME280_temperature;BME280_humidity;BME280_pressure;Samples;Min_cycle;Max_cycle;Signal;HPM_P1;HPM_P2
2022/05/19 00:00:27;;;;;;;9.98;7.55;;;23.90;52.20;22.60;101438.00;;;;5055753;28;20156;-73
2022/05/19 00:03:14;;;;;;;10.40;7.85;;;23.80;52.20;22.60;101436.00;;;;5043816;28;20053;-73
2022/05/19 00:06:00;;;;;;;8.63;7.10;;;23.90;52.30;22.60;101438.00;;;;5050336;28;20072;-73
2022/05/19 00:08:46;;;;;;;9.73;6.95;;;23.80;52.20;22.60;101435.00;;;;5053287;28;20044;-73
2022/05/19 00:11:33;;;;;;;7.82;6.50;;;23.80;52.20;22.60;101439.00;;;;5052834;28;20041;-73
2022/05/19 00:14:19;;;;;;;8.15;7.03;;;23.90;52.30;22.60;101438.00;;;;5058702;28;20045;-73
2022/05/19 00:17:05;;;;;;;9.00;7.13;;;23.80;52.20;22.60;101438.00;;;;5041785;28;20045;-73
2022/05/19 00:19:51;;;;;;;7.70;6.93;;;23.80;52.20;22.60;101436.00;;;;5046271;28;20032;-73
2022/05/19 00:22:37;;;;;;;9.77;7.43;;;23.80;52.20;22.60;101435.00;;;;5053523;28;20051;-73
2022/05/19 00:25:23;;;;;;;9.13;6.53;;;23.90;52.30;22.60;101442.00;;;;5060096;28;20446;-73
2022/05/19 00:28:09;;;;;;;9.82;6.68;;;23.80;52.20;22.60;101441.00;;;;5043250;28;20048;-73
2022/05/19 00:30:55;;;;;;;6.70;6.05;;;23.80;52.20;22.60;101448.00;;;;5038427;28;20556;-73
2022/05/19 00:33:42;;;;;;;8.90;6.43;;;23.90;52.30;22.60;101446.00;;;;5044271;28;20045;-73
2022/05/19 00:36:28;;;;;;;7.07;5.78;;;23.80;52.20;22.60;101441.00;;;;5053506;28;20053;-73
2022/05/19 00:39:14;;;;;;;8.27;6.63;;;23.90;52.30;22.60;101444.00;;;;5029287;28;20107;-73
2022/05/19 00:45:06;;;;;;;8.20;6.35;;;23.80;52.20;22.60;101433.00;;;;5042701;28;20475;-73
2022/05/19 00:48:06;;;;;;;6.63;5.22;;;23.80;52.20;22.60;101441.00;;;;5042077;28;20091;-73
2022/05/19 00:50:57;;;;;;;6.15;5.55;;;23.80;52.20;22.60;101444.00;;;;5036581;28;20115;-73
2022/05/19 00:53:52;;;;;;;7.30;5.30;;;23.80;52.30;22.60;101439.00;;;;5027208;28;20048;-72
2022/05/19 00:57:18;;;;;;;6.45;5.30;;;23.80;52.20;22.60;101439.00;;;;5043372;28;20037;-73
2022/05/19 01:00:13;;;;;;;5.88;5.28;;;23.80;52.20;22.60;101438.00;;;;5039300;28;20068;-73
2022/05/19 01:03:00;;;;;;;5.90;5.30;;;23.80;52.20;22.60;101440.00;;;;5027926;28;20057;-73
2022/05/19 01:05:57;;;;;;;6.57;5.05;;;23.80;52.30;22.60;101434.00;;;;5049997;28;20166;-72
2022/05/19 01:09:06;;;;;;;7.13;5.38;;;23.80;52.30;22.60;101438.00;;;;5030540;28;20506;-72
2022/05/19 01:11:55;;;;;;;;;;;23.80;52.20;22.60;101436.00;;;;5035430;28;20606;-72
2022/05/19 01:14:41;;;;;;;6.68;5.22;;;23.90;52.20;22.60;101431.00;;;;5042421;28;19965;-73
2022/05/19 01:17:28;;;;;;;7.38;5.47;;;23.90;52.20;22.60;101431.00;;;;5063940;28;20043;-72
2022/05/19 01:20:17;;;;;;;7.25;5.53;;;23.80;52.20;22.60;101424.00;;;;5032148;28;20116;-72
2022/05/19 01:23:36;;;;;;;5.45;4.70;;;23.80;52.20;22.60;101418.00;;;;5049188;28;20327;-74
2022/05/19 01:26:28;;;;;;;7.88;5.45;;;23.80;52.20;22.50;101425.00;;;;5052031;28;20497;-73
2022/05/19 01:29:17;;;;;;;6.93;5.53;;;23.80;52.20;22.50;101420.00;;;;5040870;28;20036;-73
2022/05/19 01:32:04;;;;;;;7.57;4.75;;;23.80;52.20;22.50;101415.00;;;;5038733;28;20507;-72
2022/05/19 01:34:50;;;;;;;6.50;4.90;;;23.80;52.20;22.60;101415.00;;;;5044225;28;20152;-72
2022/05/19 01:37:36;;;;;;;5.78;5.20;;;23.80;52.20;22.50;101415.00;;;;5043003;28;20051;-73
2022/05/19 01:40:40;;;;;;;5.55;4.90;;;23.80;52.30;22.50;101408.00;;;;5046842;28;20068;-73
2022/05/19 01:44:00;;;;;;;5.97;4.93;;;23.80;52.30;22.60;101406.00;;;;5050792;28;20045;-73
2022/05/19 01:46:50;;;;;;;6.20;4.20;;;23.80;52.30;22.50;101403.00;;;;5041894;28;20036;-73
2022/05/19 01:49:53;;;;;;;5.93;4.75;;;23.80;52.30;22.50;101408.00;;;;5027713;28;20040;-72
2022/05/19 01:53:17;;;;;;;6.68;5.05;;;23.80;52.30;22.50;101408.00;;;;5043743;28;20474;-72
2022/05/19 01:56:25;;;;;;;6.57;4.55;;;23.80;52.30;22.50;101407.00;;;;5053710;28;20043;-72
2022/05/19 01:59:43;;;;;;;5.67;4.30;;;23.80;52.30;22.50;101402.00;;;;5053766;28;20110;-74
2022/05/19 02:02:50;;;;;;;4.55;4.10;;;23.80;52.30;22.50;101406.00;;;;5027273;28;20053;-73
2022/05/19 02:06:05;;;;;;;5.32;4.57;;;23.80;52.30;22.50;101396.00;;;;5029657;28;20732;-73
2022/05/19 02:08:57;;;;;;;5.10;3.97;;;23.80;52.30;22.50;101393.00;;;;5040050;28;20045;-73
2022/05/19 02:11:51;;;;;;;5.90;4.30;;;23.80;52.30;22.50;101385.00;;;;5024342;28;20045;-73
2022/05/19 02:14:47;;;;;;;5.38;4.30;;;23.80;52.30;22.50;101388.00;;;;5046884;28;20056;-73
2022/05/19 02:17:33;;;;;;;4.70;4.10;;;23.80;52.30;22.50;101375.00;;;;5053955;28;20142;-73
2022/05/19 02:20:22;;;;;;;4.47;3.80;;;23.80;52.30;22.50;101379.00;;;;5039701;28;20148;-73
2022/05/19 02:23:09;;;;;;;6.28;4.00;;;23.80;52.30;22.50;101381.00;;;;5051922;28;20040;-73
2022/05/19 02:25:55;;;;;;;4.65;3.75;;;23.80;52.20;22.60;101378.00;;;;5047372;28;20094;-73
2022/05/19 02:28:47;;;;;;;4.20;3.80;;;23.80;52.20;22.60;101371.00;;;;5033359;28;20045;-73
2022/05/19 02:31:33;;;;;;;4.97;3.67;;;23.80;52.20;22.60;101367.00;;;;5034542;28;20040;-73
2022/05/19 02:34:19;;;;;;;4.25;3.60;;;23.80;52.20;22.60;101376.00;;;;5028766;28;20052;-73
2022/05/19 02:37:06;;;;;;;4.75;4.25;;;23.80;52.20;22.60;101368.00;;;;5030018;28;20041;-73
2022/05/19 02:39:52;;;;;;;3.90;3.58;;;23.80;52.20;22.60;101369.00;;;;5060060;28;20041;-72
2022/05/19 02:42:38;;;;;;;4.07;3.60;;;23.70;52.10;22.60;101368.00;;;;5044729;28;20589;-72
2022/05/19 02:45:24;;;;;;;3.78;3.40;;;23.80;52.20;22.60;101366.00;;;;5041203;28;20065;-73
2022/05/19 02:48:10;;;;;;;4.05;3.38;;;23.80;52.10;22.60;101363.00;;;;5056755;28;20382;-73
2022/05/19 02:50:57;;;;;;;3.45;3.00;;;23.80;52.10;22.60;101367.00;;;;5029047;28;20490;-73
2022/05/19 02:53:43;;;;;;;3.55;3.25;;;23.80;52.10;22.60;101371.00;;;;5048541;28;20045;-73
2022/05/19 02:56:29;;;;;;;4.38;3.30;;;23.80;52.10;22.60;101361.00;;;;5059977;28;20446;-73
2022/05/19 02:59:15;;;;;;;5.25;3.45;;;23.80;52.10;22.60;101359.00;;;;5055413;28;20048;-72
2022/05/19 03:02:01;;;;;;;3.22;2.92;;;23.80;52.10;22.60;101363.00;;;;5055368;28;20041;-72
2022/05/19 03:04:47;;;;;;;3.42;3.00;;;23.80;52.10;22.60;101362.00;;;;5057790;28;20064;-73
2022/05/19 03:07:33;;;;;;;3.20;2.95;;;23.80;52.00;22.60;101364.00;;;;5060287;28;20048;-73
2022/05/19 03:10:19;;;;;;;3.10;2.80;;;23.80;52.00;22.60;101365.00;;;;5042474;28;20543;-73
2022/05/19 03:13:05;;;;;;;2.85;2.60;;;23.80;52.00;22.60;101372.00;;;;5055038;28;20061;-73
2022/05/19 03:15:51;;;;;;;3.92;2.83;;;23.80;52.00;22.60;101373.00;;;;5053080;28;20044;-73
2022/05/19 03:18:37;;;;;;;3.10;2.80;;;23.80;52.00;22.60;101373.00;;;;5033527;28;20048;-72
2022/05/19 03:21:23;;;;;;;3.28;2.92;;;23.80;52.70;22.50;101371.00;;;;5041803;28;20053;-72
2022/05/19 03:24:10;;;;;;;3.35;3.05;;;23.80;52.00;22.50;101367.00;;;;5060804;28;20044;-72
2022/05/19 03:26:56;;;;;;;3.92;3.10;;;23.70;51.90;22.60;101370.00;;;;5045094;28;20029;-73
2022/05/19 03:29:42;;;;;;;3.28;2.75;;;23.80;52.00;22.60;101373.00;;;;5045384;28;20418;-73
2022/05/19 03:32:28;;;;;;;4.32;2.72;;;23.80;52.00;22.60;101373.00;;;;5030457;28;20049;-73
2022/05/19 03:35:14;;;;;;;2.60;2.40;;;23.80;52.00;22.60;101378.00;;;;5047421;28;20463;-73
2022/05/19 03:38:00;;;;;;;3.97;2.83;;;23.80;52.70;22.60;101378.00;;;;5059125;28;20513;-73
2022/05/19 03:40:47;;;;;;;2.97;2.28;;;23.80;52.00;22.50;101373.00;;;;5029203;28;20047;-73
2022/05/19 03:43:33;;;;;;;3.40;3.08;;;23.80;52.00;22.60;101385.00;;;;5044547;28;20043;-73
2022/05/19 03:46:19;;;;;;;4.30;2.33;;;23.80;51.90;22.60;101392.00;;;;5047587;28;20412;-73
2022/05/19 03:49:05;;;;;;;3.28;2.38;;;23.80;51.90;22.50;101395.00;;;;5041385;28;20049;-73
2022/05/19 03:51:51;;;;;;;4.03;2.60;;;23.80;51.90;22.50;101390.00;;;;5032301;28;20502;-73
2022/05/19 03:54:37;;;;;;;4.43;2.35;;;23.80;51.90;22.50;101393.00;;;;5029087;28;20510;-73
2022/05/19 03:57:24;;;;;;;3.28;2.45;;;23.80;51.90;22.50;101390.00;;;;5056974;28;20395;-73
2022/05/19 04:00:11;;;;;;;2.58;2.38;;;23.80;51.90;22.50;101386.00;;;;5042948;28;20053;-73
2022/05/19 04:02:58;;;;;;;2.92;2.50;;;23.80;51.90;22.50;101384.00;;;;5022236;28;20243;-73
2022/05/19 04:05:45;;;;;;;;;;;23.70;51.80;22.50;101386.00;;;;5043268;28;20052;-73
2022/05/19 04:08:31;;;;;;;2.50;2.30;;;23.80;51.90;22.50;101393.00;;;;5053962;28;19912;-73
2022/05/19 04:11:17;;;;;;;3.17;2.10;;;23.80;51.70;22.50;101391.00;;;;5045077;28;20049;-73
2022/05/19 04:14:03;;;;;;;3.85;2.15;;;23.80;51.80;22.50;101397.00;;;;5042836;28;20033;-73
2022/05/19 04:16:51;;;;;;;2.65;2.20;;;23.80;51.80;22.50;101393.00;;;;5046792;28;20041;-73
2022/05/19 04:19:37;;;;;;;3.53;2.17;;;23.80;51.80;22.50;101396.00;;;;5060480;28;20133;-73
2022/05/19 04:22:23;;;;;;;3.47;2.63;;;23.80;51.80;22.50;101397.00;;;;5046197;28;20500;-73
2022/05/19 04:25:10;;;;;;;2.65;2.40;;;23.80;51.80;22.50;101391.00;;;;5051751;28;20038;-73
2022/05/19 04:27:57;;;;;;;2.58;2.38;;;23.80;51.80;22.50;101396.00;;;;5031129;28;20049;-73
2022/05/19 04:30:43;;;;;;;4.05;2.50;;;23.80;51.80;22.50;101389.00;;;;5059597;28;20091;-73
2022/05/19 04:33:30;;;;;;;2.40;2.17;;;23.80;51.80;22.50;101396.00;;;;5042287;28;20495;-73
2022/05/19 04:36:16;;;;;;;2.72;2.53;;;23.80;51.80;22.50;101393.00;;;;5050539;28;20092;-73
2022/05/19 04:39:02;;;;;;;2.38;2.17;;;23.70;51.70;22.50;101391.00;;;;5056145;28;20045;-72
2022/05/19 04:41:48;;;;;;;2.72;2.35;;;23.70;51.70;22.50;101386.00;;;;5028086;28;20041;-73
2022/05/19 04:44:34;;;;;;;2.42;2.22;;;23.70;51.70;22.50;101387.00;;;;5051176;28;20512;-73
2022/05/19 04:47:20;;;;;;;2.40;2.20;;;23.70;51.70;22.50;101387.00;;;;5043547;28;20038;-73
2022/05/19 04:50:07;;;;;;;2.72;2.30;;;23.80;51.80;22.50;101391.00;;;;5051085;28;20049;-73
2022/05/19 04:52:56;;;;;;;3.15;2.17;;;23.70;51.70;22.50;101391.00;;;;5040911;28;20045;-72
2022/05/19 04:55:43;;;;;;;2.47;2.20;;;23.70;51.70;22.50;101398.00;;;;5043420;28;20075;-73
2022/05/19 04:58:29;;;;;;;2.38;2.17;;;23.80;51.80;22.50;101395.00;;;;5042456;28;20078;-73
2022/05/19 05:01:15;;;;;;;2.13;1.92;;;23.80;51.70;22.50;101393.00;;;;5041186;28;20045;-72
2022/05/19 05:04:01;;;;;;;3.83;2.88;;;23.70;51.70;22.50;101390.00;;;;5054704;28;20029;-73
2022/05/19 05:06:47;;;;;;;2.95;2.30;;;23.70;51.60;22.50;101393.00;;;;5044605;28;20393;-73
2022/05/19 05:09:33;;;;;;;2.40;2.15;;;23.80;51.60;22.50;101395.00;;;;5043158;28;20068;-72
2022/05/19 05:12:19;;;;;;;2.67;2.47;;;23.70;51.50;22.50;101391.00;;;;5054291;28;20046;-73
2022/05/19 05:15:06;;;;;;;2.45;2.25;;;23.70;51.50;22.50;101398.00;;;;5045528;28;20501;-73
2022/05/19 05:17:52;;;;;;;2.13;2.00;;;23.80;51.50;22.50;101396.00;;;;5036891;28;20418;-73
2022/05/19 05:20:41;;;;;;;2.42;2.22;;;23.80;51.50;22.50;101398.00;;;;5055888;28;20045;-74
2022/05/19 05:23:28;;;;;;;2.60;2.35;;;23.70;51.50;22.50;101394.00;;;;5038674;28;20422;-73
2022/05/19 05:26:14;;;;;;;2.75;2.20;;;23.70;51.40;22.50;101396.00;;;;5042912;28;20313;-73
2022/05/19 05:29:00;;;;;;;2.42;2.17;;;23.70;51.50;22.50;101403.00;;;;5040767;28;20033;-73
2022/05/19 05:31:46;;;;;;;3.20;2.28;;;23.80;51.50;22.50;101394.00;;;;5038877;28;20046;-73
2022/05/19 05:34:32;;;;;;;2.97;2.15;;;23.80;51.50;22.50;101392.00;;;;5056407;28;20078;-73
2022/05/19 05:37:18;;;;;;;3.10;2.53;;;23.70;51.50;22.50;101389.00;;;;5047202;28;20041;-73
2022/05/19 05:40:07;;;;;;;2.33;2.10;;;23.80;51.50;22.50;101395.00;;;;5045404;28;20044;-73
2022/05/19 05:42:53;;;;;;;2.60;2.20;;;23.70;51.50;22.50;101393.00;;;;5049935;28;20049;-73
2022/05/19 05:45:40;;;;;;;2.88;2.28;;;23.70;51.50;22.50;101389.00;;;;5043188;28;20041;-72
2022/05/19 05:48:26;;;;;;;3.58;2.50;;;23.70;51.50;22.50;101390.00;;;;5056719;28;20049;-72
2022/05/19 05:51:13;;;;;;;2.88;2.35;;;23.70;51.40;22.50;101393.00;;;;5042831;28;20036;-73
2022/05/19 05:53:59;;;;;;;2.50;2.20;;;23.80;51.50;22.50;101400.00;;;;5044061;28;20056;-72
2022/05/19 05:56:45;;;;;;;3.15;2.53;;;23.70;51.50;22.50;101393.00;;;;5046619;28;20319;-73
2022/05/19 05:59:31;;;;;;;2.47;2.28;;;23.70;51.50;22.50;101395.00;;;;5046764;28;20414;-73
2022/05/19 06:02:17;;;;;;;5.78;2.67;;;23.80;51.60;22.50;101427.00;;;;5042361;28;20046;-73
2022/05/19 06:05:03;;;;;;;4.40;2.65;;;23.80;51.70;22.50;101463.00;;;;5041007;28;20052;-72
2022/05/19 06:07:50;;;;;;;3.22;2.65;;;23.80;51.70;22.50;101483.00;;;;5042341;28;20043;-73
2022/05/19 06:10:36;;;;;;;4.20;2.78;;;23.70;51.70;22.50;101460.00;;;;5038358;28;20063;-73
2022/05/19 06:13:24;;;;;;;4.70;3.10;;;23.70;51.80;22.50;101475.00;;;;5036668;28;20033;-72
2022/05/19 06:16:10;;;;;;;4.55;3.20;;;23.80;51.90;22.50;101515.00;;;;5057470;28;20470;-72
2022/05/19 06:18:56;;;;;;;2.85;2.65;;;23.70;51.90;22.50;101488.00;;;;5044664;28;20460;-72
2022/05/19 06:21:42;;;;;;;4.57;3.00;;;23.80;52.00;22.50;101463.00;;;;5039990;28;20128;-72
2022/05/19 06:24:29;;;;;;;3.15;2.67;;;23.70;52.00;22.50;101496.00;;;;5042767;28;20041;-72
2022/05/19 06:27:15;;;;;;;3.95;2.67;;;23.80;52.80;22.50;101470.00;;;;5039598;28;20040;-72
2022/05/19 06:30:01;;;;;;;5.18;3.00;;;23.70;52.10;22.50;101441.00;;;;5021568;28;20458;-72
2022/05/19 06:32:47;;;;;;;3.38;2.97;;;23.80;52.20;22.60;101480.00;;;;5024334;28;20465;-73
2022/05/19 06:35:34;;;;;;;2.85;2.65;;;23.80;52.20;22.50;101469.00;;;;5045120;28;20045;-73
2022/05/19 06:38:20;;;;;;;7.87;2.80;;;23.80;52.20;22.50;101457.00;;;;5045420;28;20037;-72
2022/05/19 06:44:11;;;;;;;5.30;2.75;;;23.80;52.20;22.50;101445.00;;;;5049583;28;20068;-72
2022/05/19 06:46:57;;;;;;;3.65;2.60;;;23.80;52.20;22.50;101444.00;;;;5042800;28;20041;-72
2022/05/19 06:49:45;;;;;;;5.43;3.20;;;23.70;52.10;22.50;101443.00;;;;5042851;28;20041;-72
2022/05/19 06:52:32;;;;;;;4.25;2.55;;;23.80;52.10;22.50;101430.00;;;;5042181;28;20045;-72
2022/05/19 06:55:19;;;;;;;4.28;2.65;;;23.80;52.20;22.50;101436.00;;;;5040234;28;20049;-72
2022/05/19 06:58:06;;;;;;;;;;;23.80;52.20;22.50;101444.00;;;;5048780;28;20044;-73
2022/05/19 07:00:53;;;;;;;3.80;2.78;;;23.80;52.10;22.50;101439.00;;;;5042591;28;19917;-72
2022/05/19 07:03:39;;;;;;;3.60;2.97;;;23.80;52.00;22.50;101444.00;;;;5038044;28;20049;-72
2022/05/19 07:06:25;;;;;;;5.15;2.50;;;23.80;52.00;22.50;101436.00;;;;5056793;28;20033;-72
2022/05/19 07:09:11;;;;;;;3.95;2.40;;;23.80;52.00;22.50;101440.00;;;;5035253;28;20045;-73
2022/05/19 07:11:57;;;;;;;3.70;2.90;;;23.80;52.00;22.50;101449.00;;;;5038657;28;20041;-72
2022/05/19 07:14:44;;;;;;;3.47;2.60;;;23.80;51.90;22.50;101447.00;;;;5044998;28;20036;-72
2022/05/19 07:17:30;;;;;;;3.30;2.55;;;23.80;51.90;22.50;101459.00;;;;5033103;28;20036;-72
2022/05/19 07:23:24;;;;;;;4.22;3.00;;;23.80;52.00;22.50;101446.00;;;;5038766;28;20453;-72
2022/05/19 07:26:10;;;;;;;4.07;3.03;;;23.80;52.00;22.50;101440.00;;;;5039788;28;20049;-72
2022/05/19 07:28:56;;;;;;;4.07;2.88;;;23.80;52.10;22.50;101438.00;;;;5036801;28;20392;-72
2022/05/19 07:31:42;;;;;;;4.97;3.30;;;23.80;52.10;22.50;101431.00;;;;5037258;28;20414;-73
2022/05/19 07:34:30;;;;;;;4.07;3.05;;;23.80;52.10;22.50;101435.00;;;;5041298;28;20060;-73
2022/05/19 07:37:16;;;;;;;5.60;3.40;;;23.80;52.10;22.50;101435.00;;;;5043018;28;20037;-72
2022/05/19 07:40:04;;;;;;;10.60;3.95;;;23.80;52.10;22.50;101427.00;;;;5044801;28;20144;-73
2022/05/19 07:42:51;;;;;;;7.00;3.85;;;23.80;52.10;22.50;101433.00;;;;5031162;28;20539;-73
2022/05/19 07:45:37;;;;;;;9.38;3.70;;;23.80;52.10;22.50;101426.00;;;;5035106;28;20054;-72
2022/05/19 07:48:23;;;;;;;5.68;4.03;;;23.70;52.10;22.50;101421.00;;;;5059178;28;20326;-72
2022/05/19 07:51:09;;;;;;;3.97;3.22;;;23.80;52.20;22.50;101410.00;;;;5049876;28;20043;-72
2022/05/19 07:53:55;;;;;;;4.43;3.60;;;23.70;52.10;22.50;101411.00;;;;5041330;28;20402;-72
2022/05/19 07:56:41;;;;;;;5.97;3.35;;;23.80;52.20;22.50;101399.00;;;;5054164;28;20053;-72
2022/05/19 07:59:27;;;;;;;4.20;3.65;;;23.80;52.20;22.50;101400.00;;;;5053831;28;20040;-72
2022/05/19 08:02:13;;;;;;;6.07;3.40;;;23.80;52.20;22.50;101397.00;;;;5040771;28;20040;-72
2022/05/19 08:04:59;;;;;;;4.70;3.75;;;23.80;52.10;22.50;101395.00;;;;5037230;28;20040;-73
2022/05/19 08:07:45;;;;;;;5.47;3.75;;;23.80;52.20;22.50;101404.00;;;;5047292;28;20045;-73
2022/05/19 08:10:31;;;;;;;6.28;3.33;;;23.80;52.20;22.60;101398.00;;;;5056793;28;20444;-72
2022/05/19 08:16:22;;;;;;;4.88;3.88;;;23.80;52.10;22.60;101375.00;;;;5046099;28;20507;-72
2022/05/19 08:19:10;;;;;;;5.47;3.60;;;23.80;52.10;22.50;101365.00;;;;5025865;28;20209;-71
2022/05/19 08:21:57;;;;;;;7.57;3.28;;;23.80;52.10;22.60;101360.00;;;;5056617;28;20124;-72
2022/05/19 08:24:49;;;;;;;7.18;3.53;;;23.80;52.10;22.60;101356.00;;;;5057775;28;20033;-72
2022/05/19 08:27:35;;;;;;;5.95;3.38;;;23.80;52.00;22.50;101359.00;;;;5044641;28;20051;-72
2022/05/19 08:30:21;;;;;;;3.30;3.00;;;23.80;52.00;22.60;101355.00;;;;5043666;28;20040;-72
2022/05/19 08:33:08;;;;;;;5.00;2.60;;;23.80;51.90;22.60;101352.00;;;;5044560;28;20043;-72
2022/05/19 08:35:54;;;;;;;3.40;2.78;;;23.80;51.80;22.60;101355.00;;;;5046065;28;20047;-71
2022/05/19 08:38:40;;;;;;;5.97;3.22;;;23.80;51.80;22.60;101343.00;;;;5050460;28;20091;-72
2022/05/19 08:41:41;;;;;;;4.82;2.67;;;23.80;51.80;22.60;101336.00;;;;5057127;28;20036;-71
2022/05/19 08:44:50;;;;;;;6.03;3.60;;;23.80;51.90;22.50;101322.00;;;;5056643;28;20033;-72
2022/05/19 08:47:37;;;;;;;3.55;3.10;;;23.80;51.90;22.50;101324.00;;;;5029045;28;20557;-71
2022/05/19 08:50:37;;;;;;;3.28;2.90;;;23.80;51.90;22.50;101322.00;;;;5060431;28;20131;-71
2022/05/19 08:53:29;;;;;;;5.43;3.58;;;23.80;51.90;22.50;101308.00;;;;5046815;28;20139;-72
2022/05/19 08:56:47;;;;;;;3.72;2.90;;;23.80;51.90;22.60;101305.00;;;;5052710;28;20041;-72
2022/05/19 09:00:05;;;;;;;3.75;2.83;;;23.80;51.90;22.60;101309.00;;;;5045469;28;20059;-72
2022/05/19 09:03:19;;;;;;;5.72;3.53;;;23.80;51.90;22.50;101331.00;;;;5048353;28;20071;-72
2022/05/19 09:06:36;;;;;;;5.45;3.38;;;23.80;51.90;22.50;101328.00;;;;5032175;28;20049;-72
2022/05/19 09:09:53;;;;;;;4.55;2.72;;;23.80;52.00;22.50;101316.00;;;;5044753;28;20036;-72
2022/05/19 09:12:39;;;;;;;4.75;3.30;;;23.80;52.10;22.50;101320.00;;;;5039647;28;20493;-72
2022/05/19 09:15:25;;;;;;;3.55;3.25;;;23.80;52.20;22.50;101321.00;;;;5045749;28;20044;-71
2022/05/19 09:18:14;;;;;;;4.13;3.20;;;23.80;52.20;22.50;101308.00;;;;5046060;28;20474;-71
2022/05/19 09:21:02;;;;;;;5.47;3.35;;;23.80;52.20;22.50;101316.00;;;;5039961;28;20045;-72
2022/05/19 09:23:48;;;;;;;4.55;3.30;;;23.80;52.20;22.50;101303.00;;;;5050230;28;20045;-71
2022/05/19 09:26:53;;;;;;;5.20;3.28;;;23.80;52.20;22.60;101295.00;;;;5048467;28;20045;-72
2022/05/19 09:29:51;;;;;;;3.45;3.13;;;23.80;52.20;22.50;101294.00;;;;5042457;28;20505;-71
2022/05/19 09:32:39;;;;;;;3.65;3.00;;;23.80;52.20;22.60;101299.00;;;;5043501;28;20142;-72
2022/05/19 09:35:37;;;;;;;3.78;3.33;;;23.80;52.20;22.60;101300.00;;;;5042344;28;20040;-71
2022/05/19 09:38:33;;;;;;;;;;;23.80;52.10;22.50;101307.00;;;;5053303;28;20053;-72
2022/05/19 09:41:22;;;;;;;3.35;2.72;;;23.80;52.10;22.50;101312.00;;;;5045264;28;19923;-71
2022/05/19 09:44:14;;;;;;;4.10;2.92;;;23.80;52.00;22.50;101326.00;;;;5062213;28;20379;-72
2022/05/19 09:47:31;;;;;;;3.10;2.78;;;23.80;52.00;22.50;101320.00;;;;5039530;28;20043;-72
2022/05/19 09:50:29;;;;;;;3.97;3.05;;;23.80;52.00;22.50;101314.00;;;;5021470;28;20033;-72
2022/05/19 09:53:23;;;;;;;;;;;23.80;52.00;22.50;101307.00;;;;5046058;28;20612;-72
2022/05/19 09:56:13;;;;;;;4.10;2.78;;;23.80;52.40;22.50;101302.00;;;;5051502;28;19917;-72
2022/05/19 09:59:12;;;;;;;5.00;3.10;;;23.80;52.10;22.50;101295.00;;;;5026796;28;20045;-72
2022/05/19 10:02:25;;;;;;;4.70;3.03;;;23.80;52.20;22.50;101300.00;;;;5049769;28;20083;-72
2022/05/19 10:05:25;;;;;;;4.10;2.97;;;23.80;52.30;22.50;101295.00;;;;5047450;28;20037;-72
2022/05/19 10:08:33;;;;;;;5.00;3.08;;;23.80;52.30;22.50;101297.00;;;;5048720;28;20124;-72
2022/05/19 10:11:27;;;;;;;4.97;2.85;;;23.80;52.20;22.50;101291.00;;;;5059517;28;20501;-72
2022/05/19 10:14:17;;;;;;;4.35;2.70;;;23.70;52.10;22.50;101307.00;;;;5020037;28;20045;-72
2022/05/19 10:17:50;;;;;;;3.15;2.83;;;23.80;52.20;22.50;101310.00;;;;5053653;28;20055;-72
2022/05/19 10:20:45;;;;;;;4.05;3.08;;;23.70;52.20;22.50;101315.00;;;;5034974;28;20155;-72
2022/05/19 10:23:47;;;;;;;8.63;2.88;;;23.80;52.30;22.50;101316.00;;;;5029515;28;20041;-72
2022/05/19 10:26:50;;;;;;;4.28;2.88;;;23.80;52.20;22.50;101309.00;;;;5039962;28;20036;-72
2022/05/19 10:33:19;;;;;;;6.00;3.38;;;23.80;52.20;22.50;101297.00;;;;5033796;28;20459;-72
2022/05/19 10:37:06;;;;;;;3.72;3.10;;;23.80;52.10;22.50;101294.00;;;;5051663;28;20130;-71
2022/05/19 10:40:44;;;;;;;5.30;2.55;;;23.80;52.20;22.50;101282.00;;;;5033499;28;20379;-72
2022/05/19 10:43:52;;;;;;;2.65;2.25;;;23.80;52.20;22.50;101280.00;;;;5032274;28;20418;-72
2022/05/19 10:47:19;;;;;;;2.47;2.28;;;23.80;52.00;22.50;101281.00;;;;5043971;28;20601;-72
2022/05/19 10:50:28;;;;;;;2.53;2.30;;;23.80;52.00;22.50;101286.00;;;;5039582;28;20485;-72
2022/05/19 10:53:44;;;;;;;4.55;2.60;;;23.80;51.90;22.50;101284.00;;;;5041081;28;20525;-71
2022/05/19 10:56:58;;;;;;;3.28;2.47;;;23.80;52.10;22.50;101272.00;;;;5037963;28;20092;-71
2022/05/19 11:00:17;;;;;;;3.88;2.97;;;23.80;52.20;22.50;101261.00;;;;5040149;28;20041;-72
2022/05/19 11:03:15;;;;;;;4.15;3.17;;;23.80;52.20;22.50;101267.00;;;;5036348;28;20131;-71
2022/05/19 11:06:34;;;;;;;4.13;2.88;;;23.80;52.30;22.60;101256.00;;;;5043022;28;20572;-72
2022/05/19 11:10:09;;;;;;;4.15;2.78;;;23.80;52.50;22.50;101247.00;;;;5057955;28;20041;-72
2022/05/19 11:13:21;;;;;;;5.45;3.33;;;23.80;52.50;22.50;101235.00;;;;5032251;28;20049;-72
2022/05/19 11:16:42;;;;;;;5.35;2.97;;;23.80;52.50;22.60;101231.00;;;;5027617;28;20055;-72
2022/05/19 11:19:32;;;;;;;4.30;3.15;;;23.80;52.50;22.50;101232.00;;;;5053819;28;20486;-72
2022/05/19 11:22:24;;;;;;;6.00;2.80;;;23.80;52.50;22.60;101229.00;;;;5044626;28;20049;-71
2022/05/19 11:28:44;;;;;;;3.92;3.15;;;23.80;52.70;22.60;101226.00;;;;5034411;28;20398;-72
2022/05/19 11:31:41;;;;;;;6.03;3.45;;;23.80;52.80;22.60;101222.00;;;;5039916;28;20560;-71
2022/05/19 11:34:48;;;;;;;4.95;3.70;;;23.80;52.70;22.60;101224.00;;;;5061755;28;20072;-71
2022/05/19 11:37:41;;;;;;;3.63;3.00;;;23.80;52.60;22.60;101227.00;;;;5050346;28;20078;-71
2022/05/19 11:40:50;;;;;;;4.22;3.28;;;23.80;52.60;22.60;101224.00;;;;5042370;28;20053;-72
2022/05/19 11:43:45;;;;;;;5.35;3.70;;;23.80;52.60;22.60;101219.00;;;;5059555;28;20557;-71
2022/05/19 11:47:06;;;;;;;4.00;3.28;;;23.90;52.60;22.60;101220.00;;;;5043715;28;20101;-71
2022/05/19 11:56:11;;;;;;;3.83;3.38;;;23.80;52.60;22.60;101217.00;;;;5044556;28;20036;-71
2022/05/19 11:58:57;;;;;;;5.60;3.75;;;23.90;52.80;22.60;101209.00;;;;5038991;28;20491;-71
2022/05/19 12:01:48;;;;;;;3.90;3.28;;;23.90;52.70;22.60;101189.00;;;;5046373;28;20040;-71
2022/05/19 12:04:35;;;;;;;3.92;3.47;;;23.90;52.80;22.60;101182.00;;;;5066597;28;20375;-72
2022/05/19 12:07:42;;;;;;;3.63;3.33;;;23.90;52.80;22.60;101189.00;;;;5044833;28;20079;-71
2022/05/19 12:10:36;;;;;;;3.88;2.97;;;23.80;52.70;22.60;101188.00;;;;5042099;28;20040;-71
2022/05/19 12:13:33;;;;;;;5.25;3.15;;;23.90;52.70;22.60;101186.00;;;;5051777;28;20105;-72
2022/05/19 12:16:25;;;;;;;4.68;3.00;;;23.90;52.60;22.60;101175.00;;;;5028239;28;20053;-72
2022/05/19 12:19:30;;;;;;;3.50;3.20;;;23.90;52.40;22.60;101172.00;;;;5034032;28;20044;-71
2022/05/19 12:22:44;;;;;;;4.05;3.05;;;23.90;52.40;22.60;101162.00;;;;5052196;28;20596;-72
2022/05/19 12:25:32;;;;;;;3.58;2.50;;;23.90;52.40;22.60;101152.00;;;;5050280;28;20292;-71
2022/05/19 12:28:18;;;;;;;4.15;2.90;;;23.90;52.30;22.60;101134.00;;;;5042764;28;20489;-72
2022/05/19 12:34:25;;;;;;;3.53;3.23;;;23.90;52.30;22.60;101137.00;;;;5023118;28;20044;-71
2022/05/19 12:37:33;;;;;;;3.08;2.65;;;23.90;52.30;22.60;101142.00;;;;5043132;28;20278;-72
2022/05/19 12:40:31;;;;;;;5.23;3.50;;;23.90;52.30;22.60;101131.00;;;;5056096;28;20133;-72
2022/05/19 12:43:20;;;;;;;3.45;2.97;;;23.90;52.30;22.60;101134.00;;;;5052741;28;21321;-71
2022/05/19 12:46:10;;;;;;;3.42;2.50;;;23.90;52.30;22.60;101132.00;;;;5052765;28;20494;-72
2022/05/19 12:49:19;;;;;;;3.55;2.78;;;23.90;52.30;22.60;101127.00;;;;5029760;28;20437;-72
2022/05/19 12:52:09;;;;;;;3.55;3.10;;;23.90;52.40;22.60;101123.00;;;;5035330;28;20037;-71
2022/05/19 12:55:23;;;;;;;3.78;2.95;;;23.90;52.40;22.60;101110.00;;;;5051088;28;20048;-72
2022/05/19 12:58:47;;;;;;;5.50;3.13;;;23.90;52.40;22.60;101108.00;;;;5051415;28;20375;-72
2022/05/19 13:01:48;;;;;;;2.72;2.53;;;23.90;52.40;22.60;101105.00;;;;5036488;28;20048;-72
2022/05/19 13:04:48;;;;;;;3.78;2.70;;;23.90;52.40;22.60;101111.00;;;;5045018;28;20137;-72
2022/05/19 13:07:38;;;;;;;3.85;2.95;;;23.90;52.40;22.60;101136.00;;;;5039963;28;20033;-71